createdAt,value
2018-01-26T00:00:39.385Z,7.07
2018-01-26T00:03:06.783Z,6.23
2018-01-26T00:05:34.109Z,6.03
2018-01-26T00:08:01.494Z,7.07
2018-01-26T00:10:28.826Z,5.07
2018-01-26T00:12:56.291Z,5.83
2018-01-26T00:15:23.645Z,5.60
2018-01-26T00:17:50.967Z,5.40
2018-01-26T00:20:18.351Z,5.83
2018-01-26T00:22:45.680Z,5.77
2018-01-26T00:25:13.029Z,5.60
2018-01-26T00:27:40.354Z,7.00
2018-01-26T00:30:07.736Z,5.67
2018-01-26T00:32:35.109Z,5.53
2018-01-26T00:35:02.442Z,5.30
2018-01-26T00:37:29.789Z,5.27
2018-01-26T00:39:57.113Z,5.40
2018-01-26T00:42:24.456Z,6.60
2018-01-26T00:44:51.793Z,5.53
2018-01-26T00:47:19.155Z,6.20
2018-01-26T00:49:46.480Z,6.10
2018-01-26T00:52:13.810Z,6.27
2018-01-26T00:54:41.162Z,5.60
2018-01-26T00:57:08.546Z,6.07
2018-01-26T00:59:35.909Z,6.70
2018-01-26T01:02:03.245Z,6.10
2018-01-26T01:04:30.612Z,6.57
2018-01-26T01:06:57.965Z,5.50
2018-01-26T01:09:25.314Z,6.00
2018-01-26T01:11:52.679Z,6.20
2018-01-26T01:14:20.009Z,6.10
2018-01-26T01:16:47.366Z,6.00
2018-01-26T01:19:14.699Z,5.73
2018-01-26T01:21:42.073Z,7.47
2018-01-26T01:24:09.402Z,6.87
2018-01-26T01:26:36.733Z,6.07
2018-01-26T01:29:04.085Z,5.10
2018-01-26T01:31:31.409Z,5.90
2018-01-26T01:33:58.783Z,6.40
2018-01-26T01:36:26.107Z,5.57
2018-01-26T01:38:53.469Z,5.90
2018-01-26T01:41:20.799Z,6.67
2018-01-26T01:43:48.166Z,6.60
2018-01-26T01:46:15.498Z,6.27
2018-01-26T01:48:42.834Z,6.30
2018-01-26T01:51:10.212Z,5.30
2018-01-26T01:53:37.545Z,7.00
2018-01-26T01:56:04.989Z,6.00
2018-01-26T01:58:32.326Z,6.67
2018-01-26T02:00:59.733Z,6.67
2018-01-26T02:03:27.055Z,5.60
2018-01-26T02:05:54.381Z,7.10
2018-01-26T02:08:21.760Z,6.40
2018-01-26T02:10:49.081Z,6.43
2018-01-26T02:13:16.473Z,6.40
2018-01-26T02:15:43.805Z,6.30
2018-01-26T02:18:11.228Z,6.50
2018-01-26T02:20:38.553Z,6.30
2018-01-26T02:23:05.887Z,5.60
2018-01-26T02:25:40.185Z,5.27
2018-01-26T02:28:07.530Z,5.63
2018-01-26T02:30:34.889Z,5.17
2018-01-26T02:33:02.242Z,5.37
2018-01-26T02:35:29.606Z,5.27
2018-01-26T02:37:56.965Z,5.50
2018-01-26T02:40:24.316Z,5.60
2018-01-26T02:42:51.644Z,6.67
2018-01-26T02:45:19.017Z,5.43
2018-01-26T02:47:46.345Z,6.70
2018-01-26T02:50:13.673Z,5.53
2018-01-26T02:52:41.028Z,6.00
2018-01-26T02:55:08.357Z,6.80
2018-01-26T02:57:35.719Z,7.40
2018-01-26T03:00:03.050Z,7.50
2018-01-26T03:02:30.425Z,8.00
2018-01-26T03:04:57.753Z,9.70
2018-01-26T03:07:25.086Z,8.60
2018-01-26T03:09:52.441Z,9.47
2018-01-26T03:12:19.850Z,9.00
2018-01-26T03:14:47.224Z,9.93
2018-01-26T03:17:14.557Z,9.50
2018-01-26T03:19:41.913Z,9.27
2018-01-26T03:22:09.271Z,8.23
2018-01-26T03:24:36.602Z,9.27
2018-01-26T03:27:03.959Z,8.37
2018-01-26T03:29:31.293Z,8.03
2018-01-26T03:31:58.653Z,7.97
2018-01-26T03:34:25.982Z,7.97
2018-01-26T03:36:53.339Z,7.50
2018-01-26T03:39:20.685Z,6.90
2018-01-26T03:41:48.113Z,6.00
2018-01-26T03:44:15.463Z,7.20
2018-01-26T03:46:42.824Z,4.87
2018-01-26T03:49:10.165Z,4.93
2018-01-26T03:51:37.496Z,4.80
2018-01-26T03:54:04.856Z,5.17
2018-01-26T03:56:32.178Z,4.80
2018-01-26T03:58:59.505Z,4.20
2018-01-26T04:01:26.856Z,4.57
2018-01-26T04:03:54.177Z,3.83
2018-01-26T04:06:21.528Z,3.77
2018-01-26T04:08:48.861Z,2.90
2018-01-26T04:11:16.217Z,3.73
2018-01-26T04:13:43.572Z,3.40
2018-01-26T04:16:10.905Z,4.10
2018-01-26T04:18:38.255Z,3.67
2018-01-26T04:21:05.645Z,3.43
2018-01-26T04:23:33.348Z,3.30
2018-01-26T04:26:00.669Z,3.17
2018-01-26T04:28:28.033Z,3.70
2018-01-26T04:30:55.361Z,2.97
2018-01-26T04:33:22.685Z,3.50
2018-01-26T04:35:50.120Z,3.13
2018-01-26T04:38:17.450Z,3.97
2018-01-26T04:40:44.798Z,3.80
2018-01-26T04:43:12.152Z,3.90
2018-01-26T04:45:39.510Z,3.90
2018-01-26T04:48:06.835Z,4.80
2018-01-26T04:50:34.166Z,3.60
2018-01-26T04:53:01.507Z,3.93
2018-01-26T04:55:28.834Z,5.00
2018-01-26T04:57:56.177Z,4.40
2018-01-26T05:00:23.500Z,4.10
2018-01-26T05:02:50.882Z,3.90
2018-01-26T05:05:18.207Z,4.20
2018-01-26T05:07:45.557Z,4.43
2018-01-26T05:10:12.990Z,3.70
2018-01-26T05:12:40.306Z,3.90
2018-01-26T05:15:07.664Z,4.47
2018-01-26T05:17:34.989Z,4.60
2018-01-26T05:20:02.332Z,4.93
2018-01-26T05:22:29.653Z,4.00
2018-01-26T05:24:57.116Z,5.13
2018-01-26T05:27:24.444Z,3.90
2018-01-26T05:29:51.766Z,4.73
2018-01-26T05:32:19.117Z,4.33
2018-01-26T05:34:46.446Z,4.33
2018-01-26T05:37:13.799Z,4.73
2018-01-26T05:39:41.121Z,4.50
2018-01-26T05:42:08.632Z,4.47
2018-01-26T05:44:36.005Z,5.00
2018-01-26T05:47:03.325Z,5.90
2018-01-26T05:49:30.679Z,5.20
2018-01-26T05:51:57.994Z,4.87
2018-01-26T05:54:25.349Z,5.50
2018-01-26T05:56:52.681Z,5.37
2018-01-26T05:59:20.034Z,4.40
2018-01-26T06:01:47.371Z,3.73
2018-01-26T06:04:14.762Z,5.17
2018-01-26T06:06:42.086Z,4.50
2018-01-26T06:09:09.402Z,5.00
2018-01-26T06:11:36.751Z,4.60
2018-01-26T06:14:04.075Z,4.50
2018-01-26T06:16:31.421Z,4.10
2018-01-26T06:18:58.744Z,3.80
2018-01-26T06:21:26.185Z,3.17
2018-01-26T06:23:53.497Z,3.60
2018-01-26T06:26:20.862Z,3.00
2018-01-26T06:28:48.180Z,3.20
2018-01-26T06:31:15.516Z,3.77
2018-01-26T06:33:42.860Z,3.30
2018-01-26T06:36:10.191Z,3.00
2018-01-26T06:38:37.542Z,2.33
2018-01-26T06:41:04.864Z,1.87
2018-01-26T06:43:32.216Z,1.83
2018-01-26T06:45:59.539Z,2.10
2018-01-26T06:48:26.897Z,2.90
2018-01-26T06:50:54.236Z,2.03
2018-01-26T06:53:21.559Z,2.77
2018-01-26T06:55:48.905Z,2.13
2018-01-26T06:58:16.226Z,2.33
2018-01-26T07:00:43.574Z,2.50
2018-01-26T07:03:10.923Z,2.23
2018-01-26T07:05:38.276Z,1.90
2018-01-26T07:08:05.605Z,2.20
2018-01-26T07:10:32.928Z,2.90
2018-01-26T07:13:00.269Z,2.63
2018-01-26T07:15:27.674Z,2.43
2018-01-26T07:17:55.030Z,2.80
2018-01-26T07:20:22.350Z,3.23
2018-01-26T07:22:49.709Z,4.30
2018-01-26T07:25:17.029Z,5.27
2018-01-26T07:27:44.360Z,7.33
2018-01-26T07:30:11.719Z,49.27
2018-01-26T07:32:39.058Z,18.03
2018-01-26T07:35:06.401Z,3.13
2018-01-26T07:37:33.741Z,1.70
2018-01-26T07:40:01.091Z,1.80
2018-01-26T07:42:28.426Z,2.10
2018-01-26T07:44:55.831Z,1.90
2018-01-26T07:47:23.181Z,2.60
2018-01-26T07:49:50.503Z,2.53
2018-01-26T07:52:17.857Z,2.80
2018-01-26T07:54:45.204Z,3.97
2018-01-26T07:57:12.556Z,4.70
2018-01-26T07:59:39.886Z,3.97
2018-01-26T08:02:07.237Z,3.80
2018-01-26T08:04:34.566Z,3.50
2018-01-26T08:07:01.893Z,4.83
2018-01-26T08:09:29.263Z,4.60
2018-01-26T08:11:56.586Z,5.50
2018-01-26T08:14:24.089Z,5.27
2018-01-26T08:16:51.466Z,6.60
2018-01-26T08:19:18.819Z,6.07
2018-01-26T08:21:46.152Z,5.00
2018-01-26T08:24:13.615Z,4.40
2018-01-26T08:26:40.944Z,5.87
2018-01-26T08:29:08.270Z,7.77
2018-01-26T08:31:35.622Z,5.60
2018-01-26T08:34:02.947Z,5.87
2018-01-26T08:36:30.293Z,4.17
2018-01-26T08:38:57.715Z,3.33
2018-01-26T08:41:25.070Z,3.40
2018-01-26T08:43:52.426Z,2.90
2018-01-26T08:46:19.754Z,4.13
2018-01-26T08:48:47.101Z,5.30
2018-01-26T08:51:14.430Z,3.50
2018-01-26T08:53:41.782Z,2.50
2018-01-26T08:56:09.103Z,2.83
2018-01-26T08:58:36.462Z,2.40
2018-01-26T09:01:03.790Z,3.10
2018-01-26T09:03:31.114Z,3.10
2018-01-26T09:05:58.486Z,2.87
2018-01-26T09:08:25.805Z,3.37
2018-01-26T09:10:53.146Z,3.03
2018-01-26T09:13:20.472Z,2.70
2018-01-26T09:15:47.834Z,3.20
2018-01-26T09:18:15.159Z,2.90
2018-01-26T09:20:42.590Z,3.33
2018-01-26T09:23:09.933Z,3.27
2018-01-26T09:25:37.263Z,2.63
2018-01-26T09:28:04.628Z,3.43
2018-01-26T09:30:31.965Z,2.87
2018-01-26T09:32:59.329Z,3.33
2018-01-26T09:35:26.649Z,3.00
2018-01-26T09:37:53.977Z,2.77
2018-01-26T09:40:21.330Z,3.10
2018-01-26T09:42:48.791Z,2.97
2018-01-26T09:45:16.268Z,3.70
2018-01-26T09:47:43.610Z,4.50
2018-01-26T09:50:10.966Z,5.40
2018-01-26T09:52:38.293Z,4.43
2018-01-26T09:55:05.619Z,6.73
2018-01-26T09:57:32.980Z,3.50
2018-01-26T10:00:00.306Z,3.70
2018-01-26T10:02:27.655Z,4.80
2018-01-26T10:04:54.977Z,4.67
2018-01-26T10:07:22.340Z,4.23
2018-01-26T10:09:49.764Z,4.30
2018-01-26T10:12:17.133Z,3.17
2018-01-26T10:14:44.510Z,3.60
2018-01-26T10:17:11.830Z,4.23
2018-01-26T10:19:39.287Z,4.37
2018-01-26T10:22:06.628Z,4.00
2018-01-26T10:24:33.983Z,4.90
2018-01-26T10:27:01.307Z,4.87
2018-01-26T10:29:28.629Z,4.20
2018-01-26T10:31:55.983Z,5.57
2018-01-26T10:34:23.306Z,4.50
2018-01-26T10:36:50.663Z,4.60
2018-01-26T10:39:17.974Z,4.07
2018-01-26T10:41:45.326Z,4.70
2018-01-26T10:44:12.645Z,4.40
2018-01-26T10:46:40.009Z,4.50
2018-01-26T10:49:07.340Z,5.13
2018-01-26T10:51:34.664Z,4.30
2018-01-26T10:54:02.026Z,4.63
2018-01-26T10:56:29.351Z,4.80
2018-01-26T10:58:57.118Z,4.20
2018-01-26T11:01:24.472Z,4.57
2018-01-26T11:03:51.820Z,4.47
2018-01-26T11:06:19.148Z,4.47
2018-01-26T11:08:46.512Z,4.47
2018-01-26T11:11:13.833Z,4.10
2018-01-26T11:13:41.158Z,4.17
2018-01-26T11:16:08.501Z,4.67
2018-01-26T11:18:35.837Z,4.77
2018-01-26T11:21:03.193Z,3.40
2018-01-26T11:23:30.545Z,4.50
2018-01-26T11:25:57.907Z,4.20
2018-01-26T11:28:25.243Z,4.23
2018-01-26T11:30:52.568Z,4.03
2018-01-26T11:33:19.910Z,4.50
2018-01-26T11:35:47.235Z,4.60
2018-01-26T11:38:14.590Z,4.87
2018-01-26T11:40:41.913Z,4.43
2018-01-26T11:43:09.350Z,4.50
2018-01-26T11:45:36.681Z,4.83
2018-01-26T11:48:04.005Z,3.53
2018-01-26T11:50:31.363Z,4.97
2018-01-26T11:52:58.688Z,3.30
2018-01-26T11:55:26.031Z,4.10
2018-01-26T11:57:53.436Z,3.70
2018-01-26T12:00:20.734Z,3.90
2018-01-26T12:02:48.062Z,3.60
2018-01-26T12:05:15.409Z,3.80
2018-01-26T12:07:42.733Z,4.07
2018-01-26T12:10:10.090Z,4.20
2018-01-26T12:12:37.426Z,3.67
2018-01-26T12:15:04.753Z,4.37
2018-01-26T12:17:32.109Z,4.20
2018-01-26T12:19:59.429Z,3.87
2018-01-26T12:22:26.785Z,4.37
2018-01-26T12:24:54.536Z,3.77
2018-01-26T12:27:22.298Z,3.90
2018-01-26T12:29:49.989Z,3.40
2018-01-26T12:32:17.720Z,3.97
2018-01-26T12:34:45.488Z,3.07
2018-01-26T12:37:12.872Z,4.03
2018-01-26T12:39:40.217Z,4.13
2018-01-26T12:42:07.540Z,4.10
2018-01-26T12:44:34.902Z,3.37
2018-01-26T12:47:02.274Z,3.83
2018-01-26T12:49:29.673Z,3.70
2018-01-26T12:51:57.052Z,3.93
2018-01-26T12:54:24.456Z,4.10
2018-01-26T12:56:51.828Z,4.80
2018-01-26T12:59:19.197Z,4.80
2018-01-26T13:01:46.574Z,2.90
2018-01-26T13:04:13.935Z,2.93
2018-01-26T13:06:41.337Z,2.80
2018-01-26T13:09:08.737Z,3.70
2018-01-26T13:11:36.085Z,2.23
2018-01-26T13:14:03.535Z,2.80
2018-01-26T13:16:30.973Z,2.10
2018-01-26T13:18:58.342Z,2.47
2018-01-26T13:21:25.731Z,2.30
2018-01-26T13:23:53.117Z,2.33
2018-01-26T13:26:20.480Z,2.53
2018-01-26T13:28:47.866Z,2.20
2018-01-26T13:31:15.233Z,2.10
2018-01-26T13:33:42.639Z,2.43
2018-01-26T13:36:10.008Z,2.47
2018-01-26T13:38:37.376Z,2.13
2018-01-26T13:41:04.720Z,2.70
2018-01-26T13:43:32.095Z,2.50
2018-01-26T13:45:59.450Z,2.67
2018-01-26T13:48:26.778Z,2.20
2018-01-26T13:50:54.127Z,2.53
2018-01-26T13:53:21.450Z,3.40
2018-01-26T13:55:48.776Z,2.90
2018-01-26T13:58:16.128Z,2.70
2018-01-26T14:00:43.449Z,3.40
2018-01-26T14:03:10.805Z,2.90
2018-01-26T14:05:38.137Z,2.90
2018-01-26T14:08:05.480Z,3.50
2018-01-26T14:10:32.814Z,2.87
2018-01-26T14:13:00.146Z,3.53
2018-01-26T14:15:27.495Z,4.17
2018-01-26T14:17:54.822Z,5.13
2018-01-26T14:20:22.166Z,5.10
2018-01-26T14:22:49.489Z,4.10
2018-01-26T14:25:16.840Z,4.70
2018-01-26T14:27:44.166Z,4.10
2018-01-26T14:30:11.636Z,4.70
2018-01-26T14:32:38.961Z,4.60
2018-01-26T14:35:06.281Z,5.03
2018-01-26T14:37:33.636Z,5.10
2018-01-26T14:40:01.051Z,5.70
2018-01-26T14:42:28.405Z,5.07
2018-01-26T14:44:55.734Z,5.50
2018-01-26T14:47:23.120Z,5.33
2018-01-26T14:49:50.436Z,6.07
2018-01-26T14:52:17.784Z,5.40
2018-01-26T14:54:45.137Z,6.97
2018-01-26T14:57:12.468Z,6.43
2018-01-26T14:59:39.814Z,6.90
2018-01-26T15:02:07.143Z,6.77
2018-01-26T15:04:34.516Z,6.73
2018-01-26T15:07:01.850Z,8.20
2018-01-26T15:09:29.185Z,7.50
2018-01-26T15:11:56.539Z,6.60
2018-01-26T15:14:23.863Z,7.13
2018-01-26T15:16:51.208Z,6.43
2018-01-26T15:19:18.579Z,7.60
2018-01-26T15:21:46.089Z,7.63
2018-01-26T15:24:13.461Z,8.73
2018-01-26T15:26:40.777Z,7.60
2018-01-26T15:29:08.176Z,7.90
2018-01-26T15:31:35.510Z,7.60
2018-01-26T15:34:02.867Z,7.37
2018-01-26T15:36:30.201Z,7.40
2018-01-26T15:38:57.605Z,7.90
2018-01-26T15:41:24.930Z,6.90
2018-01-26T15:43:52.661Z,7.10
2018-01-26T15:46:20.319Z,5.97
2018-01-26T15:48:47.977Z,6.73
2018-01-26T15:51:15.387Z,7.07
2018-01-26T15:53:43.035Z,8.87
2018-01-26T15:56:10.842Z,8.93
2018-01-26T15:58:38.245Z,10.83
2018-01-26T16:01:05.609Z,28.67
2018-01-26T16:03:33.027Z,10.70
2018-01-26T16:06:00.425Z,7.40
2018-01-26T16:08:27.832Z,7.70
2018-01-26T16:10:55.191Z,7.03
2018-01-26T16:13:22.613Z,6.30
2018-01-26T16:15:55.697Z,5.67
2018-01-26T16:18:23.110Z,4.77
2018-01-26T16:20:50.434Z,4.87
2018-01-26T16:23:17.805Z,3.90
2018-01-26T16:25:45.200Z,3.50
2018-01-26T16:28:12.571Z,3.93
2018-01-26T16:30:39.918Z,3.40
2018-01-26T16:33:07.289Z,3.40
2018-01-26T16:35:34.681Z,3.30
2018-01-26T16:38:02.053Z,3.23
2018-01-26T16:40:29.465Z,3.00
2018-01-26T16:42:56.796Z,3.40
2018-01-26T16:45:24.184Z,3.07
2018-01-26T16:47:51.584Z,3.10
2018-01-26T16:50:18.953Z,3.13
2018-01-26T16:52:46.294Z,3.20
2018-01-26T16:55:13.673Z,4.00
2018-01-26T16:57:41.115Z,3.40
2018-01-26T17:00:08.498Z,3.13
2018-01-26T17:02:35.933Z,3.27
2018-01-26T17:05:03.662Z,3.33
2018-01-26T17:07:31.037Z,3.93
2018-01-26T17:09:58.758Z,4.73
2018-01-26T17:12:26.456Z,4.40
2018-01-26T17:14:53.798Z,4.93
2018-01-26T17:17:21.177Z,4.00
2018-01-26T17:19:48.522Z,4.00
2018-01-26T17:22:15.900Z,4.73
2018-01-26T17:24:43.257Z,4.80
2018-01-26T17:27:10.603Z,5.30
2018-01-26T17:29:37.946Z,4.67
2018-01-26T17:32:05.300Z,4.60
2018-01-26T17:34:32.707Z,3.97
2018-01-26T17:37:00.108Z,5.50
2018-01-26T17:39:27.429Z,4.57
2018-01-26T17:41:54.773Z,5.20
2018-01-26T17:44:22.300Z,5.80
2018-01-26T17:46:50.621Z,6.37
2018-01-26T17:49:17.972Z,7.30
2018-01-26T17:51:45.344Z,7.00
2018-01-26T17:54:12.750Z,6.93
2018-01-26T17:56:40.227Z,6.40
2018-01-26T17:59:07.753Z,6.27
2018-01-26T18:01:35.210Z,6.00
2018-01-26T18:04:02.546Z,5.07
2018-01-26T18:06:29.893Z,5.67
2018-01-26T18:08:57.215Z,4.83
2018-01-26T18:11:24.608Z,5.27
2018-01-26T18:13:51.943Z,5.00
2018-01-26T18:16:19.965Z,6.10
2018-01-26T18:18:47.411Z,7.53
2018-01-26T18:21:14.800Z,5.90
2018-01-26T18:23:42.238Z,6.10
2018-01-26T18:26:09.600Z,5.60
2018-01-26T18:28:37.017Z,6.10
2018-01-26T18:31:04.337Z,5.63
2018-01-26T18:33:31.702Z,6.30
2018-01-26T18:35:59.081Z,5.90
2018-01-26T18:38:26.567Z,5.07
2018-01-26T18:40:53.965Z,6.10
2018-01-26T18:43:21.289Z,6.20
2018-01-26T18:45:48.650Z,6.70
2018-01-26T18:48:16.033Z,6.77
2018-01-26T18:50:43.401Z,6.53
2018-01-26T18:53:10.741Z,7.07
2018-01-26T18:55:38.124Z,7.47
2018-01-26T18:58:05.518Z,6.43
2018-01-26T19:00:32.874Z,7.37
2018-01-26T19:03:00.262Z,6.90
2018-01-26T19:05:28.078Z,6.80
2018-01-26T19:07:55.452Z,6.83
2018-01-26T19:10:22.820Z,6.97
2018-01-26T19:12:50.150Z,6.63
2018-01-26T19:15:17.582Z,8.60
2018-01-26T19:17:45.469Z,6.60
2018-01-26T19:20:13.026Z,6.97
2018-01-26T19:22:40.411Z,7.13
2018-01-26T19:25:07.948Z,7.10
2018-01-26T19:27:35.454Z,7.20
2018-01-26T19:30:02.939Z,6.43
2018-01-26T19:32:30.389Z,7.67
2018-01-26T19:34:57.980Z,7.57
2018-01-26T19:37:25.534Z,8.97
2018-01-26T19:39:53.043Z,9.57
2018-01-26T19:42:20.463Z,7.70
2018-01-26T19:44:47.970Z,7.73
2018-01-26T19:47:15.475Z,7.27
2018-01-26T19:49:43.134Z,8.23
2018-01-26T19:52:10.592Z,8.23
2018-01-26T19:54:38.046Z,7.67
2018-01-26T19:57:05.435Z,8.50
2018-01-26T19:59:33.006Z,7.93
2018-01-26T20:02:00.464Z,8.00
2018-01-26T20:04:33.641Z,8.33
2018-01-26T20:07:12.855Z,9.47
2018-01-26T20:09:40.294Z,9.17
2018-01-26T20:12:11.561Z,7.97
2018-01-26T20:14:38.954Z,8.10
2018-01-26T20:17:06.312Z,6.87
2018-01-26T20:19:33.641Z,8.03
2018-01-26T20:22:01.049Z,8.97
2018-01-26T20:24:28.439Z,8.73
2018-01-26T20:26:55.872Z,10.23
2018-01-26T20:29:23.305Z,10.10
2018-01-26T20:31:50.657Z,9.30
2018-01-26T20:34:18.133Z,8.80
2018-01-26T20:36:45.610Z,8.00
2018-01-26T20:39:13.171Z,7.60
2018-01-26T20:41:40.581Z,7.20
2018-01-26T20:44:08.149Z,8.15
2018-01-26T20:46:35.642Z,8.13
2018-01-26T20:49:03.126Z,7.50
2018-01-26T20:51:30.477Z,7.70
2018-01-26T20:53:57.998Z,6.80
2018-01-26T20:56:25.405Z,8.07
2018-01-26T20:58:52.794Z,8.33
2018-01-26T21:01:20.708Z,8.70
2018-01-26T21:03:48.049Z,8.57
2018-01-26T21:06:15.538Z,9.57
2018-01-26T21:08:42.944Z,9.17
2018-01-26T21:11:10.320Z,9.70
2018-01-26T21:13:37.682Z,9.07
2018-01-26T21:16:05.104Z,14.17
2018-01-26T21:18:32.587Z,18.93
2018-01-26T21:20:59.922Z,19.37
2018-01-26T21:23:27.257Z,16.47
2018-01-26T21:25:54.785Z,13.80
2018-01-26T21:28:22.228Z,9.47
2018-01-26T21:30:49.630Z,9.57
2018-01-26T21:33:17.017Z,9.30
2018-01-26T21:35:44.432Z,9.57
2018-01-26T21:38:11.812Z,8.67
2018-01-26T21:40:39.140Z,8.43
2018-01-26T21:43:06.648Z,8.50
2018-01-26T21:45:34.018Z,8.63
2018-01-26T21:48:01.449Z,9.10
2018-01-26T21:50:28.876Z,8.53
2018-01-26T21:52:56.286Z,9.17
2018-01-26T21:55:23.661Z,9.70
2018-01-26T21:57:51.043Z,11.00
2018-01-26T22:00:18.473Z,10.43
2018-01-26T22:02:45.941Z,11.33
2018-01-26T22:05:15.334Z,10.50
2018-01-26T22:07:42.713Z,12.07
2018-01-26T22:10:10.078Z,13.97
2018-01-26T22:12:37.462Z,11.77
2018-01-26T22:15:04.873Z,17.10
2018-01-26T22:17:32.221Z,15.13
2018-01-26T22:19:59.613Z,13.37
2018-01-26T22:22:26.969Z,14.77
2018-01-26T22:24:54.330Z,14.13
2018-01-26T22:27:21.740Z,14.50
2018-01-26T22:29:49.115Z,14.63
2018-01-26T22:32:16.467Z,14.70
2018-01-26T22:34:43.871Z,15.37
2018-01-26T22:37:11.316Z,15.80
2018-01-26T22:39:38.645Z,16.03
2018-01-26T22:42:06.035Z,15.93
2018-01-26T22:44:33.442Z,15.00
2018-01-26T22:47:00.828Z,14.10
2018-01-26T22:49:28.243Z,15.70
2018-01-26T22:51:55.625Z,15.40
2018-01-26T22:54:22.982Z,15.37
2018-01-26T22:56:50.368Z,14.47
2018-01-26T22:59:17.844Z,14.27
2018-01-26T23:01:45.215Z,14.70
2018-01-26T23:04:12.638Z,16.30
2018-01-26T23:06:40.000Z,14.40
2018-01-26T23:09:07.350Z,16.77
2018-01-26T23:11:34.764Z,16.23
2018-01-26T23:14:02.148Z,16.10
2018-01-26T23:16:29.617Z,16.00
2018-01-26T23:18:57.074Z,16.80
2018-01-26T23:21:24.456Z,18.20
2018-01-26T23:23:51.845Z,17.43
2018-01-26T23:26:19.341Z,17.00
2018-01-26T23:28:46.761Z,16.47
2018-01-26T23:31:14.179Z,18.37
2018-01-26T23:33:41.550Z,16.63
2018-01-26T23:36:08.929Z,16.53
2018-01-26T23:38:36.422Z,17.50
2018-01-26T23:41:03.822Z,18.67
2018-01-26T23:43:31.166Z,16.13
2018-01-26T23:45:58.581Z,17.03
2018-01-26T23:48:25.913Z,17.90
2018-01-26T23:50:53.326Z,15.97
2018-01-26T23:53:20.705Z,17.37
2018-01-26T23:55:48.238Z,18.30
2018-01-26T23:58:15.664Z,17.70
